Terminal Aerodrome Forecast
Issued by NWS Twin Cities, MN

Current Version | Previous Version | Text Only | Print | Product List | Glossary On
Versions: 1 2 3 4 5 6 7 8 9 10 11 12 13 14 15 16 17 18 19 20 21 22 23 24 25 26 27 28
755
FTUS43 KMPX 221723
TAFMSP
TAF
KMSP 221723Z 2218/2324 17015G24KT P6SM FEW035 SCT150
     FM230000 17013KT P6SM SCT150
     FM230300 18010KT P6SM SCT200 WS020/21050KT
     FM231000 18008KT P6SM BKN200
     FM231700 19008KT P6SM BKN035=

USA.gov is the U.S. government's official web portal to all federal, state and local government web resources and services.